logo tempoitalia

Diretta Meteo Marsiglia-Marignane, Francialunedì 31 agosto ore 07:00

Mappa
Sereno 20 °C Molto Nuvoloso 24 Ore: T.min 19 T.max 32
Ponente Nord Km/h 5.5 Punto di rugiada: 16 °C Umidità: 77% Visibilità: 10 Km
Il sole sorge alle: 07:01 Il sole tramonta alle: 20:16
31 Agosto 2026 07:00 tempo osservato: Molto Nuvoloso Molto Nuvoloso 20 77 1016 vento: Nord N 5.5
31 Agosto 2026 06:30 tempo osservato: Molto Nuvoloso Molto Nuvoloso 19 88 1016 vento: Nord SE 11.1
31 Agosto 2026 06:00 tempo osservato: Poco Nuvoloso Poco Nuvoloso 19 82 1016 vento: Nord N 3.7
31 Agosto 2026 05:30 tempo osservato: Molto Nuvoloso Molto Nuvoloso 20 77 1016 vento: Nord N 5.5
31 Agosto 2026 05:00 tempo osservato: Sereno Sereno 21 77 1016 vento: Nord N 5.5
31 Agosto 2026 04:30 tempo osservato: Sereno Sereno 20 82 1016 vento: Nord N 5.5
31 Agosto 2026 04:00 tempo osservato: Sereno Sereno 20 82 1016 vento: Nord SE 11.1
31 Agosto 2026 03:30 tempo osservato: Sereno Sereno 20 82 1016 vento: Nord SE 7.4
31 Agosto 2026 03:00 tempo osservato: Sereno Sereno 20 82 1016 vento: Nord E/SE 7.4
31 Agosto 2026 02:30 tempo osservato: Sereno Sereno 20 82 1016 vento: Nord SE 9.3
31 Agosto 2026 02:00 tempo osservato: Sereno Sereno 20 82 1016 vento: Nord E 7.4
31 Agosto 2026 01:30 tempo osservato: Sereno Sereno 22 73 1017 vento: Nord N 5.5
31 Agosto 2026 01:00 tempo osservato: Sereno Sereno 23 73 1016 vento: Nord N 5.5
31 Agosto 2026 00:30 tempo osservato: Sereno Sereno 21 82 1016 vento: Nord SE 13
31 Agosto 2026 00:00 tempo osservato: Sereno Sereno 22 78 1016 vento: Nord E/SE 11.1
30 Agosto 2026 23:30 tempo osservato: Sereno Sereno 23 73 1016 vento: Nord E/SE 7.4
30 Agosto 2026 23:00 tempo osservato: Sereno Sereno 23 73 1016 vento: Nord N 3.7
30 Agosto 2026 22:30 tempo osservato: Sereno Sereno 24 69 1016 vento: Nord SE 7.4
30 Agosto 2026 22:00 tempo osservato: Sereno Sereno 25 69 1016 vento: Nord O/SO 11.1
30 Agosto 2026 21:30 tempo osservato: Sereno Sereno 25 69 1016 vento: Nord O/SO 16.7
30 Agosto 2026 21:00 tempo osservato: Sereno Sereno 25 65 1015 vento: Nord SO 9.3
30 Agosto 2026 20:30 tempo osservato: Sereno Sereno 26 61 1015 vento: Nord S/SO 9.3
30 Agosto 2026 20:00 tempo osservato: Sereno Sereno 27 57 1014 vento: Nord S/SO 13
30 Agosto 2026 19:30 tempo osservato: Sereno Sereno 28 54 1014 vento: Nord O/SO 18.5
30 Agosto 2026 19:00 tempo osservato: Sereno Sereno 30 45 1014 vento: Nord O/SO 20.3
30 Agosto 2026 18:30 tempo osservato: Sereno Sereno 31 40 1014 vento: Nord O/SO 22.2
30 Agosto 2026 18:00 tempo osservato: Sereno Sereno 32 33 1014 vento: Nord O/SO 20.3
30 Agosto 2026 17:30 tempo osservato: Sereno Sereno 32 38 1014 vento: Nord O/SO 20.3
30 Agosto 2026 17:00 tempo osservato: Sereno Sereno 32 40 1014 vento: Nord O/SO 20.3
30 Agosto 2026 16:30 tempo osservato: Sereno Sereno 31 43 1014 vento: Nord O/SO 22.2
30 Agosto 2026 16:00 tempo osservato: Sereno Sereno 32 43 1014 vento: Nord O/SO 22.2
30 Agosto 2026 15:30 tempo osservato: Sereno Sereno 31 43 1015 vento: Nord O/SO 14.8
30 Agosto 2026 15:00 tempo osservato: Sereno Sereno 31 40 1015 vento: Nord O/SO 14.8
30 Agosto 2026 14:30 tempo osservato: Sereno Sereno 31 37 1015 vento: Nord O 13
30 Agosto 2026 14:00 tempo osservato: Sereno Sereno 31 37 1015 vento: Nord O 13
30 Agosto 2026 13:30 tempo osservato: Sereno Sereno 30 40 1015 vento: Nord O/SO 7.4
30 Agosto 2026 13:00 tempo osservato: Sereno Sereno 29 39 1016 vento: Nord O 7.4
30 Agosto 2026 12:30 tempo osservato: Sereno Sereno 29 42 1016 vento: Nord O 13
30 Agosto 2026 12:00 tempo osservato: Sereno Sereno 27 50 1016 vento: Nord O/SO 11.1
30 Agosto 2026 11:30 tempo osservato: Sereno Sereno 26 54 1016 vento: Nord O/SO 11.1
30 Agosto 2026 11:00 tempo osservato: Sereno Sereno 26 54 1016 vento: Nord O 7.4
30 Agosto 2026 10:30 tempo osservato: Sereno Sereno 25 57 1016 vento: Nord N 5.5
30 Agosto 2026 10:00 tempo osservato: Sereno Sereno 24 57 1016 vento: Nord NO 9.3
30 Agosto 2026 09:30 tempo osservato: Sereno Sereno 24 60 1016 vento: Nord O/NO 7.4
30 Agosto 2026 09:00 tempo osservato: Sereno Sereno 23 64 1016 vento: Nord O/NO 9.3
30 Agosto 2026 08:30 tempo osservato: Sereno Sereno 22 73 1016 vento: Nord N 3.7
30 Agosto 2026 08:00 tempo osservato: Sereno Sereno 20 82 1015 vento: Nord N 3.7